Terminal Aerodrome Forecast
Issued by NWS

Home | Current Version | Previous Version | Text Only | Print | Product List | Glossary On
Versions: 1 2 3 4 5 6 7 8 9 10 11 12 13 14
656
FTUS45 KABQ 192349 CCA
TAFFMN
TAF COR
KFMN 192349Z 2000/2024 27022G33KT 4SM -SN OVC040
      TEMPO 2000/2002 3/4SM -SN BR OVC015
     FM200400 27015KT P6SM BKN080
     FM201200 27010KT P6SM BKN080=

USA.gov is the U.S. government's official web portal to all federal, state and local government web resources and services.